sensor_id;sensor_type;location;lat;lon;timestamp;pressure;altitude;pressure_sealevel;temperature;humidity
6194;BME280;3130;41.564;23.280;2023-05-09T00:00:55;98911.75;;;15.29;100.00
6194;BME280;3130;41.564;23.280;2023-05-09T00:03:22;98829.97;;;14.86;100.00
6194;BME280;3130;41.564;23.280;2023-05-09T00:05:51;98920.41;;;15.50;100.00
6194;BME280;3130;41.564;23.280;2023-05-09T00:08:18;98918.22;;;15.66;100.00
6194;BME280;3130;41.564;23.280;2023-05-09T00:10:45;98920.75;;;15.77;100.00
6194;BME280;3130;41.564;23.280;2023-05-09T00:13:12;98831.06;;;15.14;100.00
6194;BME280;3130;41.564;23.280;2023-05-09T00:15:39;98730.69;;;14.47;100.00
6194;BME280;3130;41.564;23.280;2023-05-09T00:18:07;98818.56;;;14.99;100.00
6194;BME280;3130;41.564;23.280;2023-05-09T00:20:34;98799.22;;;14.83;100.00
6194;BME280;3130;41.564;23.280;2023-05-09T00:23:04;98704.44;;;14.20;100.00
6194;BME280;3130;41.564;23.280;2023-05-09T00:25:31;98782.75;;;14.63;100.00
6194;BME280;3130;41.564;23.280;2023-05-09T00:27:59;98854.94;;;15.07;100.00
6194;BME280;3130;41.564;23.280;2023-05-09T00:30:26;98921.94;;;15.41;100.00
6194;BME280;3130;41.564;23.280;2023-05-09T00:32:53;98862.19;;;15.13;100.00
6194;BME280;3130;41.564;23.280;2023-05-09T00:35:20;98919.63;;;15.70;100.00
6194;BME280;3130;41.564;23.280;2023-05-09T00:37:48;98830.13;;;15.15;100.00
6194;BME280;3130;41.564;23.280;2023-05-09T00:40:16;98903.41;;;15.68;100.00
6194;BME280;3130;41.564;23.280;2023-05-09T00:42:43;98882.66;;;15.58;100.00
6194;BME280;3130;41.564;23.280;2023-05-09T00:45:10;98924.88;;;15.79;100.00
6194;BME280;3130;41.564;23.280;2023-05-09T00:47:38;98928.09;;;15.72;100.00
6194;BME280;3130;41.564;23.280;2023-05-09T00:50:06;98707.38;;;14.38;100.00
6194;BME280;3130;41.564;23.280;2023-05-09T00:52:35;98766.88;;;14.68;100.00
6194;BME280;3130;41.564;23.280;2023-05-09T00:55:02;98924.38;;;15.54;100.00
6194;BME280;3130;41.564;23.280;2023-05-09T00:57:34;98774.28;;;14.61;100.00
6194;BME280;3130;41.564;23.280;2023-05-09T01:00:02;98934.25;;;15.49;100.00
6194;BME280;3130;41.564;23.280;2023-05-09T01:02:30;98761.66;;;14.47;100.00
6194;BME280;3130;41.564;23.280;2023-05-09T01:05:00;98719.47;;;14.15;100.00
6194;BME280;3130;41.564;23.280;2023-05-09T01:07:31;98905.50;;;15.42;100.00
6194;BME280;3130;41.564;23.280;2023-05-09T01:10:04;98920.25;;;15.51;100.00
6194;BME280;3130;41.564;23.280;2023-05-09T01:12:40;98822.34;;;14.95;100.00
6194;BME280;3130;41.564;23.280;2023-05-09T01:15:12;98923.31;;;15.56;100.00
6194;BME280;3130;41.564;23.280;2023-05-09T01:17:50;98788.09;;;14.71;100.00
6194;BME280;3130;41.564;23.280;2023-05-09T01:20:24;98776.03;;;14.72;100.00
6194;BME280;3130;41.564;23.280;2023-05-09T01:23:05;98908.16;;;15.52;100.00
6194;BME280;3130;41.564;23.280;2023-05-09T01:25:48;98919.44;;;15.51;100.00
6194;BME280;3130;41.564;23.280;2023-05-09T01:28:43;98923.31;;;15.56;100.00
6194;BME280;3130;41.564;23.280;2023-05-09T01:31:19;98848.13;;;15.06;100.00
6194;BME280;3130;41.564;23.280;2023-05-09T01:33:52;98905.59;;;15.41;100.00
6194;BME280;3130;41.564;23.280;2023-05-09T01:36:20;98822.81;;;14.89;100.00
6194;BME280;3130;41.564;23.280;2023-05-09T01:38:49;98900.56;;;15.39;100.00
6194;BME280;3130;41.564;23.280;2023-05-09T01:41:18;98794.44;;;14.78;100.00
6194;BME280;3130;41.564;23.280;2023-05-09T01:43:48;98907.13;;;15.43;100.00
6194;BME280;3130;41.564;23.280;2023-05-09T01:46:19;98898.56;;;15.43;100.00
6194;BME280;3130;41.564;23.280;2023-05-09T01:48:48;98874.72;;;15.39;100.00
6194;BME280;3130;41.564;23.280;2023-05-09T01:51:17;98899.34;;;15.54;100.00
6194;BME280;3130;41.564;23.280;2023-05-09T01:53:47;98926.91;;;15.65;100.00
6194;BME280;3130;41.564;23.280;2023-05-09T01:56:16;98829.09;;;15.07;100.00
6194;BME280;3130;41.564;23.280;2023-05-09T01:58:45;98914.69;;;15.67;100.00
6194;BME280;3130;41.564;23.280;2023-05-09T02:01:14;98908.25;;;15.61;100.00
6194;BME280;3130;41.564;23.280;2023-05-09T02:03:44;98830.47;;;15.22;100.00
6194;BME280;3130;41.564;23.280;2023-05-09T02:06:11;98753.63;;;15.04;100.00
6194;BME280;3130;41.564;23.280;2023-05-09T02:08:40;98780.38;;;15.45;100.00
6194;BME280;3130;41.564;23.280;2023-05-09T02:11:08;98733.53;;;15.38;100.00
6194;BME280;3130;41.564;23.280;2023-05-09T02:13:35;98875.63;;;16.42;100.00
6194;BME280;3130;41.564;23.280;2023-05-09T02:16:03;98839.16;;;16.24;100.00
6194;BME280;3130;41.564;23.280;2023-05-09T02:18:32;98925.28;;;16.86;100.00
6194;BME280;3130;41.564;23.280;2023-05-09T02:21:02;98929.00;;;16.93;100.00
6194;BME280;3130;41.564;23.280;2023-05-09T02:23:29;98868.09;;;16.59;100.00
6194;BME280;3130;41.564;23.280;2023-05-09T02:25:56;98907.31;;;16.85;100.00
6194;BME280;3130;41.564;23.280;2023-05-09T02:28:24;98729.03;;;15.81;100.00
6194;BME280;3130;41.564;23.280;2023-05-09T02:30:55;98929.00;;;16.93;100.00
6194;BME280;3130;41.564;23.280;2023-05-09T02:33:23;98720.59;;;15.79;100.00
6194;BME280;3130;41.564;23.280;2023-05-09T02:35:52;98900.19;;;16.87;100.00
6194;BME280;3130;41.564;23.280;2023-05-09T02:38:21;98725.50;;;15.82;100.00
6194;BME280;3130;41.564;23.280;2023-05-09T02:40:49;98847.91;;;16.63;100.00
6194;BME280;3130;41.564;23.280;2023-05-09T02:43:17;98892.13;;;16.80;100.00
6194;BME280;3130;41.564;23.280;2023-05-09T02:45:44;98787.72;;;16.11;100.00
6194;BME280;3130;41.564;23.280;2023-05-09T02:48:12;98763.91;;;15.87;100.00
6194;BME280;3130;41.564;23.280;2023-05-09T02:50:39;98721.31;;;15.61;100.00
6194;BME280;3130;41.564;23.280;2023-05-09T02:53:10;98736.22;;;15.78;100.00
6194;BME280;3130;41.564;23.280;2023-05-09T02:55:39;98848.97;;;16.60;100.00
6194;BME280;3130;41.564;23.280;2023-05-09T02:58:07;98775.59;;;16.11;100.00
6194;BME280;3130;41.564;23.280;2023-05-09T03:00:34;98943.81;;;17.21;100.00
6194;BME280;3130;41.564;23.280;2023-05-09T03:03:02;98894.53;;;17.02;100.00
6194;BME280;3130;41.564;23.280;2023-05-09T03:05:29;98892.66;;;16.74;100.00
6194;BME280;3130;41.564;23.280;2023-05-09T03:07:56;98865.56;;;16.28;100.00
6194;BME280;3130;41.564;23.280;2023-05-09T03:10:24;98885.72;;;16.24;100.00
6194;BME280;3130;41.564;23.280;2023-05-09T03:12:54;98824.84;;;15.80;100.00
6194;BME280;3130;41.564;23.280;2023-05-09T03:15:21;98893.78;;;16.51;100.00
6194;BME280;3130;41.564;23.280;2023-05-09T03:17:49;98727.97;;;15.22;100.00
6194;BME280;3130;41.564;23.280;2023-05-09T03:20:16;98941.41;;;16.39;100.00
6194;BME280;3130;41.564;23.280;2023-05-09T03:22:43;98858.28;;;15.72;100.00
6194;BME280;3130;41.564;23.280;2023-05-09T03:25:13;98832.13;;;15.54;100.00
6194;BME280;3130;41.564;23.280;2023-05-09T03:27:41;98843.09;;;15.47;100.00
6194;BME280;3130;41.564;23.280;2023-05-09T03:30:11;98938.69;;;16.10;100.00
6194;BME280;3130;41.564;23.280;2023-05-09T03:32:39;98935.81;;;16.03;100.00
6194;BME280;3130;41.564;23.280;2023-05-09T03:35:07;98945.09;;;16.06;100.00
6194;BME280;3130;41.564;23.280;2023-05-09T03:37:34;98950.50;;;16.03;100.00
6194;BME280;3130;41.564;23.280;2023-05-09T03:40:01;98960.09;;;15.91;100.00
6194;BME280;3130;41.564;23.280;2023-05-09T03:42:28;98954.59;;;15.85;100.00
6194;BME280;3130;41.564;23.280;2023-05-09T03:44:55;98953.03;;;15.82;100.00
6194;BME280;3130;41.564;23.280;2023-05-09T03:47:24;98956.88;;;15.67;100.00
6194;BME280;3130;41.564;23.280;2023-05-09T03:49:50;98959.03;;;15.62;100.00
6194;BME280;3130;41.564;23.280;2023-05-09T03:52:18;98974.63;;;15.72;100.00
6194;BME280;3130;41.564;23.280;2023-05-09T03:54:45;98822.38;;;14.84;100.00
6194;BME280;3130;41.564;23.280;2023-05-09T03:57:12;98962.38;;;15.74;100.00
6194;BME280;3130;41.564;23.280;2023-05-09T03:59:39;98912.50;;;15.51;100.00
6194;BME280;3130;41.564;23.280;2023-05-09T04:02:06;98971.50;;;15.89;100.00
6194;BME280;3130;41.564;23.280;2023-05-09T04:04:35;98972.69;;;15.85;100.00
6194;BME280;3130;41.564;23.280;2023-05-09T04:07:02;98974.69;;;15.81;100.00
6194;BME280;3130;41.564;23.280;2023-05-09T04:09:29;98937.53;;;15.51;100.00
6194;BME280;3130;41.564;23.280;2023-05-09T04:11:56;98885.56;;;15.11;100.00
6194;BME280;3130;41.564;23.280;2023-05-09T04:14:23;98967.13;;;15.58;100.00
6194;BME280;3130;41.564;23.280;2023-05-09T04:16:50;98979.09;;;15.70;100.00
6194;BME280;3130;41.564;23.280;2023-05-09T04:19:17;98982.72;;;15.67;100.00
6194;BME280;3130;41.564;23.280;2023-05-09T04:21:46;98984.03;;;15.62;100.00
6194;BME280;3130;41.564;23.280;2023-05-09T04:24:13;98984.25;;;15.70;100.00
6194;BME280;3130;41.564;23.280;2023-05-09T04:26:40;98984.34;;;15.79;100.00
6194;BME280;3130;41.564;23.280;2023-05-09T04:29:07;98985.53;;;15.75;100.00
6194;BME280;3130;41.564;23.280;2023-05-09T04:31:34;98984.81;;;15.73;100.00
6194;BME280;3130;41.564;23.280;2023-05-09T04:34:01;98986.84;;;15.70;100.00
6194;BME280;3130;41.564;23.280;2023-05-09T04:36:28;98987.78;;;15.69;100.00
6194;BME280;3130;41.564;23.280;2023-05-09T04:38:57;98898.94;;;15.16;100.00
6194;BME280;3130;41.564;23.280;2023-05-09T04:41:24;98993.06;;;15.78;100.00
6194;BME280;3130;41.564;23.280;2023-05-09T04:43:52;98974.00;;;15.79;100.00
6194;BME280;3130;41.564;23.280;2023-05-09T04:46:19;98983.13;;;15.94;100.00
6194;BME280;3130;41.564;23.280;2023-05-09T04:48:46;98937.34;;;15.74;100.00
6194;BME280;3130;41.564;23.280;2023-05-09T04:51:13;98879.75;;;15.72;100.00
6194;BME280;3130;41.564;23.280;2023-05-09T04:53:40;98997.47;;;16.70;100.00
6194;BME280;3130;41.564;23.280;2023-05-09T04:56:08;98850.16;;;15.65;100.00
6194;BME280;3130;41.564;23.280;2023-05-09T04:58:35;98987.75;;;16.42;100.00
6194;BME280;3130;41.564;23.280;2023-05-09T05:01:04;98982.50;;;16.53;100.00
6194;BME280;3130;41.564;23.280;2023-05-09T05:03:31;98981.59;;;16.84;100.00
6194;BME280;3130;41.564;23.280;2023-05-09T05:05:58;98816.06;;;15.92;100.00
6194;BME280;3130;41.564;23.280;2023-05-09T05:08:25;98974.16;;;17.00;100.00
6194;BME280;3130;41.564;23.280;2023-05-09T05:10:52;98992.13;;;17.22;100.00
6194;BME280;3130;41.564;23.280;2023-05-09T05:13:21;98972.81;;;17.06;100.00
6194;BME280;3130;41.564;23.280;2023-05-09T05:15:48;98979.94;;;17.13;100.00
6194;BME280;3130;41.564;23.280;2023-05-09T05:18:16;98992.31;;;17.30;100.00
6194;BME280;3130;41.564;23.280;2023-05-09T05:20:43;99005.50;;;17.57;100.00
6194;BME280;3130;41.564;23.280;2023-05-09T05:23:10;99006.19;;;17.59;100.00
6194;BME280;3130;41.564;23.280;2023-05-09T05:25:37;98991.94;;;17.34;100.00
6194;BME280;3130;41.564;23.280;2023-05-09T05:28:04;99003.03;;;17.55;100.00
6194;BME280;3130;41.564;23.280;2023-05-09T05:30:33;99012.19;;;17.69;100.00
6194;BME280;3130;41.564;23.280;2023-05-09T05:33:00;99012.88;;;17.61;99.65
6194;BME280;3130;41.564;23.280;2023-05-09T05:35:27;99026.22;;;17.47;97.37
6194;BME280;3130;41.564;23.280;2023-05-09T05:37:54;98993.69;;;17.34;97.65
6194;BME280;3130;41.564;23.280;2023-05-09T05:40:22;98848.22;;;16.39;97.43
6194;BME280;3130;41.564;23.280;2023-05-09T05:42:49;98829.28;;;16.39;95.61
6194;BME280;3130;41.564;23.280;2023-05-09T05:45:16;99000.31;;;17.57;94.45
6194;BME280;3130;41.564;23.280;2023-05-09T05:47:45;98921.50;;;16.90;94.27
6194;BME280;3130;41.564;23.280;2023-05-09T05:50:12;98944.31;;;16.46;94.95
6194;BME280;3130;41.564;23.280;2023-05-09T05:52:39;99028.97;;;16.75;96.81
6194;BME280;3130;41.564;23.280;2023-05-09T05:55:07;99033.47;;;16.73;98.16
6194;BME280;3130;41.564;23.280;2023-05-09T05:57:34;99038.41;;;16.76;98.84
6194;BME280;3130;41.564;23.280;2023-05-09T06:00:02;99031.03;;;16.81;99.02
6194;BME280;3130;41.564;23.280;2023-05-09T06:02:30;99029.09;;;16.74;99.78
6194;BME280;3130;41.564;23.280;2023-05-09T06:04:59;99001.00;;;16.49;100.00
6194;BME280;3130;41.564;23.280;2023-05-09T06:07:26;98933.47;;;16.00;100.00
6194;BME280;3130;41.564;23.280;2023-05-09T06:09:54;99040.88;;;16.57;100.00
6194;BME280;3130;41.564;23.280;2023-05-09T06:12:21;98889.72;;;15.77;100.00
6194;BME280;3130;41.564;23.280;2023-05-09T06:14:48;99043.69;;;16.75;100.00
6194;BME280;3130;41.564;23.280;2023-05-09T06:17:15;99040.06;;;16.87;100.00
6194;BME280;3130;41.564;23.280;2023-05-09T06:19:42;99020.63;;;16.92;98.17
6194;BME280;3130;41.564;23.280;2023-05-09T06:22:11;99040.81;;;16.98;97.61
6194;BME280;3130;41.564;23.280;2023-05-09T06:24:38;99050.38;;;17.27;97.56
6194;BME280;3130;41.564;23.280;2023-05-09T06:27:05;98876.94;;;16.16;96.97
6194;BME280;3130;41.564;23.280;2023-05-09T06:29:32;99045.84;;;16.90;98.78
6194;BME280;3130;41.564;23.280;2023-05-09T06:32:00;98924.88;;;16.31;99.98
6194;BME280;3130;41.564;23.280;2023-05-09T06:34:27;99003.41;;;16.82;99.44
6194;BME280;3130;41.564;23.280;2023-05-09T06:36:54;98916.78;;;16.24;99.21
6194;BME280;3130;41.564;23.280;2023-05-09T06:39:23;99040.22;;;16.85;98.95
6194;BME280;3130;41.564;23.280;2023-05-09T06:41:50;99032.53;;;17.04;99.49
6194;BME280;3130;41.564;23.280;2023-05-09T06:44:17;99040.22;;;17.15;97.87
6194;BME280;3130;41.564;23.280;2023-05-09T06:46:44;99040.75;;;17.09;97.20
6194;BME280;3130;41.564;23.280;2023-05-09T06:49:11;99043.75;;;17.14;98.17
6194;BME280;3130;41.564;23.280;2023-05-09T06:51:39;99030.47;;;17.28;98.04
6194;BME280;3130;41.564;23.280;2023-05-09T06:54:06;99052.59;;;17.62;96.61
6194;BME280;3130;41.564;23.280;2023-05-09T06:56:35;99022.28;;;16.93;94.33
6194;BME280;3130;41.564;23.280;2023-05-09T06:59:02;99035.31;;;17.32;94.30
6194;BME280;3130;41.564;23.280;2023-05-09T07:01:29;99058.41;;;17.24;94.19
6194;BME280;3130;41.564;23.280;2023-05-09T07:03:57;98955.47;;;16.46;96.32
6194;BME280;3130;41.564;23.280;2023-05-09T07:06:26;99031.25;;;16.48;98.11
6194;BME280;3130;41.564;23.280;2023-05-09T07:08:54;99053.28;;;16.63;100.00
6194;BME280;3130;41.564;23.280;2023-05-09T07:11:21;99050.44;;;16.66;100.00
6194;BME280;3130;41.564;23.280;2023-05-09T07:13:50;99057.50;;;16.64;100.00
6194;BME280;3130;41.564;23.280;2023-05-09T07:16:18;99023.66;;;16.36;100.00
6194;BME280;3130;41.564;23.280;2023-05-09T07:18:47;99058.91;;;16.48;99.67
6194;BME280;3130;41.564;23.280;2023-05-09T07:21:14;98958.31;;;15.92;99.34
6194;BME280;3130;41.564;23.280;2023-05-09T07:23:41;98961.81;;;16.02;99.49
6194;BME280;3130;41.564;23.280;2023-05-09T07:26:08;99059.75;;;16.89;100.00
6194;BME280;3130;41.564;23.280;2023-05-09T07:28:35;99064.94;;;17.19;98.01
6194;BME280;3130;41.564;23.280;2023-05-09T07:31:05;99061.16;;;17.23;96.43
6194;BME280;3130;41.564;23.280;2023-05-09T07:33:33;98941.28;;;16.41;95.23
6194;BME280;3130;41.564;23.280;2023-05-09T07:36:00;99062.47;;;17.38;95.10
6194;BME280;3130;41.564;23.280;2023-05-09T07:38:28;98966.78;;;16.96;93.16
6194;BME280;3130;41.564;23.280;2023-05-09T07:40:55;99063.63;;;17.54;91.78
6194;BME280;3130;41.564;23.280;2023-05-09T07:43:22;99067.91;;;17.65;91.60
6194;BME280;3130;41.564;23.280;2023-05-09T07:45:51;99013.16;;;17.28;91.11
6194;BME280;3130;41.564;23.280;2023-05-09T07:48:19;98988.63;;;17.32;91.65
6194;BME280;3130;41.564;23.280;2023-05-09T07:50:46;98859.91;;;16.13;89.30
6194;BME280;3130;41.564;23.280;2023-05-09T07:53:13;99072.66;;;17.60;89.68
6194;BME280;3130;41.564;23.280;2023-05-09T07:55:41;99068.59;;;17.76;89.55
6194;BME280;3130;41.564;23.280;2023-05-09T07:58:09;99079.16;;;17.94;89.66
6194;BME280;3130;41.564;23.280;2023-05-09T08:00:36;99073.63;;;17.59;88.17
6194;BME280;3130;41.564;23.280;2023-05-09T08:03:04;99079.91;;;17.56;89.29
6194;BME280;3130;41.564;23.280;2023-05-09T08:05:39;98940.47;;;17.00;89.10
6194;BME280;3130;41.564;23.280;2023-05-09T08:08:06;99086.13;;;18.03;88.09
6194;BME280;3130;41.564;23.280;2023-05-09T08:10:33;99080.94;;;18.03;88.67
6194;BME280;3130;41.564;23.280;2023-05-09T08:13:00;99085.19;;;18.13;87.38
6194;BME280;3130;41.564;23.280;2023-05-09T08:15:27;99085.41;;;18.30;85.03
6194;BME280;3130;41.564;23.280;2023-05-09T08:17:54;99089.94;;;18.38;83.91
6194;BME280;3130;41.564;23.280;2023-05-09T08:20:21;99095.72;;;18.02;83.21
6194;BME280;3130;41.564;23.280;2023-05-09T08:22:50;98990.81;;;17.37;84.18
6194;BME280;3130;41.564;23.280;2023-05-09T08:25:17;99087.50;;;17.97;84.91
6194;BME280;3130;41.564;23.280;2023-05-09T08:27:45;99094.56;;;17.86;84.96
6194;BME280;3130;41.564;23.280;2023-05-09T08:30:13;99093.75;;;17.85;85.73
6194;BME280;3130;41.564;23.280;2023-05-09T08:32:40;99091.34;;;18.03;84.25
6194;BME280;3130;41.564;23.280;2023-05-09T08:35:07;99005.06;;;17.52;83.33
6194;BME280;3130;41.564;23.280;2023-05-09T08:37:35;99034.22;;;17.74;84.83
6194;BME280;3130;41.564;23.280;2023-05-09T08:40:04;99029.56;;;17.68;84.47
6194;BME280;3130;41.564;23.280;2023-05-09T08:42:32;99106.25;;;18.19;83.49
6194;BME280;3130;41.564;23.280;2023-05-09T08:45:05;99075.09;;;18.01;83.48
6194;BME280;3130;41.564;23.280;2023-05-09T08:47:34;99102.91;;;18.28;83.27
6194;BME280;3130;41.564;23.280;2023-05-09T08:50:02;99042.97;;;17.92;82.86
6194;BME280;3130;41.564;23.280;2023-05-09T08:52:29;99056.09;;;18.00;82.51
6194;BME280;3130;41.564;23.280;2023-05-09T08:54:58;99106.03;;;18.32;82.23
6194;BME280;3130;41.564;23.280;2023-05-09T08:57:27;99098.66;;;18.27;81.35
6194;BME280;3130;41.564;23.280;2023-05-09T08:59:55;99110.41;;;18.31;80.32
6194;BME280;3130;41.564;23.280;2023-05-09T09:02:22;99098.47;;;18.19;80.81
6194;BME280;3130;41.564;23.280;2023-05-09T09:04:50;99108.50;;;18.24;80.50
6194;BME280;3130;41.564;23.280;2023-05-09T09:07:17;99115.28;;;18.16;79.34
6194;BME280;3130;41.564;23.280;2023-05-09T09:09:46;99089.03;;;18.00;79.98
6194;BME280;3130;41.564;23.280;2023-05-09T09:12:15;99073.72;;;17.57;84.41
6194;BME280;3130;41.564;23.280;2023-05-09T09:14:47;98996.06;;;17.17;87.19
6194;BME280;3130;41.564;23.280;2023-05-09T09:17:18;99076.16;;;17.49;90.98
6194;BME280;3130;41.564;23.280;2023-05-09T09:19:48;99071.50;;;17.43;93.39
6194;BME280;3130;41.564;23.280;2023-05-09T09:22:18;99111.38;;;17.52;95.54
6194;BME280;3130;41.564;23.280;2023-05-09T09:24:46;99113.38;;;17.39;96.77
6194;BME280;3130;41.564;23.280;2023-05-09T09:27:13;99018.81;;;16.63;98.47
6194;BME280;3130;41.564;23.280;2023-05-09T09:29:40;98970.22;;;16.14;99.93
6194;BME280;3130;41.564;23.280;2023-05-09T09:32:08;99108.72;;;16.92;100.00
6194;BME280;3130;41.564;23.280;2023-05-09T09:34:35;99113.25;;;17.00;100.00
6194;BME280;3130;41.564;23.280;2023-05-09T09:37:05;99106.50;;;17.08;100.00
6194;BME280;3130;41.564;23.280;2023-05-09T09:39:32;99110.78;;;16.98;100.00
6194;BME280;3130;41.564;23.280;2023-05-09T09:42:09;99019.88;;;16.60;100.00
6194;BME280;3130;41.564;23.280;2023-05-09T09:44:40;99032.22;;;16.68;100.00
6194;BME280;3130;41.564;23.280;2023-05-09T09:47:11;99103.31;;;17.05;100.00
6194;BME280;3130;41.564;23.280;2023-05-09T09:49:44;99092.16;;;17.04;100.00
6194;BME280;3130;41.564;23.280;2023-05-09T09:52:21;98920.09;;;16.15;100.00
6194;BME280;3130;41.564;23.280;2023-05-09T09:54:49;99034.13;;;16.96;100.00
6194;BME280;3130;41.564;23.280;2023-05-09T09:57:34;99029.78;;;16.76;100.00
6194;BME280;3130;41.564;23.280;2023-05-09T10:00:02;99110.94;;;17.26;100.00
6194;BME280;3130;41.564;23.280;2023-05-09T10:02:32;98920.22;;;15.94;100.00
6194;BME280;3130;41.564;23.280;2023-05-09T10:05:06;98882.44;;;15.82;100.00
6194;BME280;3130;41.564;23.280;2023-05-09T10:07:34;98904.81;;;15.92;100.00
6194;BME280;3130;41.564;23.280;2023-05-09T10:10:03;98986.03;;;16.01;100.00
6194;BME280;3130;41.564;23.280;2023-05-09T10:12:33;99099.47;;;16.79;100.00
6194;BME280;3130;41.564;23.280;2023-05-09T10:15:03;98899.47;;;15.53;100.00
6194;BME280;3130;41.564;23.280;2023-05-09T10:17:35;99112.03;;;16.83;100.00
6194;BME280;3130;41.564;23.280;2023-05-09T10:20:05;98918.94;;;15.88;100.00
6194;BME280;3130;41.564;23.280;2023-05-09T10:22:35;98987.94;;;16.50;100.00
6194;BME280;3130;41.564;23.280;2023-05-09T10:25:13;98941.94;;;16.22;100.00
6194;BME280;3130;41.564;23.280;2023-05-09T10:27:45;98888.75;;;16.09;100.00
6194;BME280;3130;41.564;23.280;2023-05-09T10:30:20;99111.44;;;17.31;99.83
6194;BME280;3130;41.564;23.280;2023-05-09T10:35:38;99026.97;;;16.58;100.00
6194;BME280;3130;41.564;23.280;2023-05-09T10:38:06;99005.56;;;16.56;100.00
6194;BME280;3130;41.564;23.280;2023-05-09T10:40:37;98966.06;;;16.43;99.90
6194;BME280;3130;41.564;23.280;2023-05-09T10:43:06;99094.28;;;17.40;99.00
6194;BME280;3130;41.564;23.280;2023-05-09T10:45:34;99117.16;;;17.35;98.30
6194;BME280;3130;41.564;23.280;2023-05-09T10:48:05;99016.66;;;16.68;98.04
6194;BME280;3130;41.564;23.280;2023-05-09T10:50:37;98975.94;;;16.49;97.89
6194;BME280;3130;41.564;23.280;2023-05-09T10:53:16;99115.00;;;16.58;100.00
6194;BME280;3130;41.564;23.280;2023-05-09T10:55:51;98885.22;;;15.27;100.00
6194;BME280;3130;41.564;23.280;2023-05-09T10:58:30;99025.75;;;16.42;100.00
6194;BME280;3130;41.564;23.280;2023-05-09T11:01:00;99106.91;;;17.13;100.00
6194;BME280;3130;41.564;23.280;2023-05-09T11:03:53;98970.47;;;15.80;100.00
6194;BME280;3130;41.564;23.280;2023-05-09T11:06:46;99069.50;;;16.45;100.00
6194;BME280;3130;41.564;23.280;2023-05-09T11:09:25;98924.19;;;15.77;100.00
6194;BME280;3130;41.564;23.280;2023-05-09T11:11:54;99119.44;;;17.08;100.00
6194;BME280;3130;41.564;23.280;2023-05-09T11:14:30;99014.34;;;16.65;100.00
6194;BME280;3130;41.564;23.280;2023-05-09T11:16:59;99074.75;;;17.16;100.00
6194;BME280;3130;41.564;23.280;2023-05-09T11:19:36;99091.38;;;17.33;100.00
6194;BME280;3130;41.564;23.280;2023-05-09T11:22:15;99112.06;;;17.54;100.00
6194;BME280;3130;41.564;23.280;2023-05-09T11:24:45;98898.78;;;16.23;100.00
6194;BME280;3130;41.564;23.280;2023-05-09T11:27:15;99010.13;;;16.94;100.00
6194;BME280;3130;41.564;23.280;2023-05-09T11:29:43;99113.59;;;17.56;100.00
6194;BME280;3130;41.564;23.280;2023-05-09T11:32:13;99041.00;;;17.06;99.92
6194;BME280;3130;41.564;23.280;2023-05-09T11:34:43;98977.81;;;16.47;100.00
6194;BME280;3130;41.564;23.280;2023-05-09T11:37:12;99023.81;;;16.75;100.00
6194;BME280;3130;41.564;23.280;2023-05-09T11:39:55;99089.06;;;17.10;100.00
6194;BME280;3130;41.564;23.280;2023-05-09T11:42:27;98925.91;;;16.28;100.00
6194;BME280;3130;41.564;23.280;2023-05-09T11:44:55;98914.63;;;16.09;99.36
6194;BME280;3130;41.564;23.280;2023-05-09T11:47:22;98979.84;;;16.44;99.22
6194;BME280;3130;41.564;23.280;2023-05-09T11:49:51;99116.13;;;17.26;98.53
6194;BME280;3130;41.564;23.280;2023-05-09T11:52:19;99100.97;;;17.22;98.52
6194;BME280;3130;41.564;23.280;2023-05-09T11:54:50;99114.03;;;17.11;98.73
6194;BME280;3130;41.564;23.280;2023-05-09T11:57:30;98908.16;;;15.83;98.24
6194;BME280;3130;41.564;23.280;2023-05-09T12:00:14;98910.94;;;15.91;97.98
6194;BME280;3130;41.564;23.280;2023-05-09T12:02:43;98951.91;;;16.07;99.22
6194;BME280;3130;41.564;23.280;2023-05-09T12:05:24;99018.38;;;16.26;100.00
6194;BME280;3130;41.564;23.280;2023-05-09T12:07:52;98966.44;;;15.87;100.00
6194;BME280;3130;41.564;23.280;2023-05-09T12:10:20;99119.56;;;16.86;100.00
6194;BME280;3130;41.564;23.280;2023-05-09T12:12:49;99039.91;;;16.58;100.00
6194;BME280;3130;41.564;23.280;2023-05-09T12:15:17;99032.41;;;16.55;100.00
6194;BME280;3130;41.564;23.280;2023-05-09T12:17:45;99078.19;;;16.96;100.00
6194;BME280;3130;41.564;23.280;2023-05-09T12:20:14;98990.59;;;16.08;100.00
6194;BME280;3130;41.564;23.280;2023-05-09T12:22:42;98996.25;;;16.33;100.00
6194;BME280;3130;41.564;23.280;2023-05-09T12:25:12;99017.03;;;16.12;100.00
6194;BME280;3130;41.564;23.280;2023-05-09T12:27:40;99060.00;;;16.66;100.00
6194;BME280;3130;41.564;23.280;2023-05-09T12:30:08;99056.25;;;16.79;100.00
6194;BME280;3130;41.564;23.280;2023-05-09T12:32:38;99008.00;;;16.58;100.00
6194;BME280;3130;41.564;23.280;2023-05-09T12:35:08;99010.56;;;16.78;100.00
6194;BME280;3130;41.564;23.280;2023-05-09T12:37:38;99084.41;;;17.34;100.00
6194;BME280;3130;41.564;23.280;2023-05-09T12:40:09;99027.38;;;17.04;99.50
6194;BME280;3130;41.564;23.280;2023-05-09T12:42:38;99075.50;;;17.27;98.48
6194;BME280;3130;41.564;23.280;2023-05-09T12:45:07;99080.81;;;17.46;97.62
6194;BME280;3130;41.564;23.280;2023-05-09T12:47:36;98939.06;;;16.36;97.81
6194;BME280;3130;41.564;23.280;2023-05-09T12:50:08;99050.28;;;17.09;96.75
6194;BME280;3130;41.564;23.280;2023-05-09T12:52:39;98852.97;;;15.94;96.49
6194;BME280;3130;41.564;23.280;2023-05-09T12:55:08;99089.28;;;17.27;96.48
6194;BME280;3130;41.564;23.280;2023-05-09T12:57:36;99102.91;;;17.29;97.67
6194;BME280;3130;41.564;23.280;2023-05-09T13:00:05;99090.47;;;17.44;97.55
6194;BME280;3130;41.564;23.280;2023-05-09T13:02:34;98978.41;;;16.51;100.00
6194;BME280;3130;41.564;23.280;2023-05-09T13:05:09;98954.72;;;16.55;100.00
6194;BME280;3130;41.564;23.280;2023-05-09T13:07:43;99080.91;;;17.44;100.00
6194;BME280;3130;41.564;23.280;2023-05-09T13:10:11;99010.69;;;16.97;98.83
6194;BME280;3130;41.564;23.280;2023-05-09T13:12:41;99041.63;;;17.19;98.38
6194;BME280;3130;41.564;23.280;2023-05-09T13:15:12;99055.38;;;17.10;96.69
6194;BME280;3130;41.564;23.280;2023-05-09T13:17:41;99064.63;;;17.13;97.45